createdAt,value
2019-02-10T00:00:28.563Z,6.61
2019-02-10T00:01:28.554Z,6.46
2019-02-10T00:02:28.544Z,6.48
2019-02-10T00:03:28.530Z,6.46
2019-02-10T00:04:28.521Z,6.47
2019-02-10T00:05:28.514Z,6.40
2019-02-10T00:06:28.500Z,6.38
2019-02-10T00:07:28.485Z,6.44
2019-02-10T00:08:28.477Z,6.40
2019-02-10T00:09:28.465Z,6.33
2019-02-10T00:10:28.469Z,6.32
2019-02-10T00:11:28.441Z,6.40
2019-02-10T00:12:28.431Z,6.44
2019-02-10T00:13:28.419Z,6.41
2019-02-10T00:14:28.408Z,6.40
2019-02-10T00:15:28.397Z,6.40
2019-02-10T00:16:28.391Z,6.29
2019-02-10T00:17:28.374Z,6.36
2019-02-10T00:18:28.362Z,6.32
2019-02-10T00:19:28.351Z,6.35
2019-02-10T00:20:28.341Z,6.40
2019-02-10T00:21:28.332Z,6.36
2019-02-10T00:22:28.327Z,6.38
2019-02-10T00:23:28.307Z,6.36
2019-02-10T00:24:28.297Z,6.33
2019-02-10T00:25:28.284Z,6.32
2019-02-10T00:26:28.274Z,6.41
2019-02-10T00:27:28.265Z,6.35
2019-02-10T00:28:28.251Z,6.46
2019-02-10T00:29:28.239Z,6.35
2019-02-10T00:30:28.229Z,6.35
2019-02-10T00:31:28.218Z,6.38
2019-02-10T00:32:28.206Z,6.33
2019-02-10T00:33:28.200Z,6.28
2019-02-10T00:34:28.184Z,6.32
2019-02-10T00:35:28.173Z,6.35
2019-02-10T00:36:33.250Z,6.29
2019-02-10T00:37:29.151Z,6.32
2019-02-10T00:38:28.151Z,6.32
2019-02-10T00:39:28.127Z,6.33
2019-02-10T00:40:28.116Z,6.33
2019-02-10T00:41:28.106Z,6.33
2019-02-10T00:42:28.094Z,6.32
2019-02-10T00:43:28.083Z,6.32
2019-02-10T00:44:28.093Z,6.30
2019-02-10T00:45:28.063Z,6.35
2019-02-10T00:46:28.053Z,6.25
2019-02-10T00:47:28.039Z,6.32
2019-02-10T00:48:28.027Z,6.30
2019-02-10T00:49:28.020Z,6.30
2019-02-10T00:50:28.013Z,6.28
2019-02-10T00:51:28.001Z,6.28
2019-02-10T00:52:27.982Z,6.32
2019-02-10T00:53:27.972Z,6.22
2019-02-10T00:54:27.960Z,6.19
2019-02-10T00:55:27.948Z,6.22
2019-02-10T00:56:27.938Z,6.19
2019-02-10T00:57:27.926Z,6.21
2019-02-10T00:58:27.915Z,6.21
2019-02-10T00:59:27.904Z,6.29
2019-02-10T01:00:27.894Z,6.22
2019-02-10T01:01:27.886Z,6.25
2019-02-10T01:02:27.871Z,6.32
2019-02-10T01:03:27.859Z,6.30
2019-02-10T01:04:27.847Z,6.28
2019-02-10T01:05:27.840Z,6.28
2019-02-10T01:06:27.828Z,6.28
2019-02-10T01:07:27.814Z,6.29
2019-02-10T01:08:27.804Z,6.28
2019-02-10T01:09:27.791Z,6.30
2019-02-10T01:10:27.781Z,6.29
2019-02-10T01:11:27.769Z,6.30
2019-02-10T01:12:27.761Z,6.21
2019-02-10T01:13:27.750Z,6.21
2019-02-10T01:14:27.738Z,6.33
2019-02-10T01:15:27.724Z,6.21
2019-02-10T01:16:27.715Z,6.18
2019-02-10T01:17:27.707Z,6.19
2019-02-10T01:18:27.703Z,6.26
2019-02-10T01:19:27.681Z,6.09
2019-02-10T01:20:27.668Z,6.13
2019-02-10T01:21:27.659Z,6.11
2019-02-10T01:22:27.645Z,6.16
2019-02-10T01:23:27.639Z,6.13
2019-02-10T01:24:27.625Z,5.95
2019-02-10T01:25:27.613Z,5.95
2019-02-10T01:26:27.600Z,6.03
2019-02-10T01:27:27.590Z,5.95
2019-02-10T01:28:27.580Z,6.00
2019-02-10T01:29:27.575Z,5.96
2019-02-10T01:30:27.557Z,5.86
2019-02-10T01:31:27.546Z,5.88
2019-02-10T01:32:27.534Z,5.89
2019-02-10T01:33:27.524Z,5.89
2019-02-10T01:34:27.519Z,5.91
2019-02-10T01:35:27.501Z,5.78
2019-02-10T01:36:27.490Z,5.73
2019-02-10T01:37:27.479Z,5.67
2019-02-10T01:38:27.471Z,5.68
2019-02-10T01:39:27.455Z,5.73
2019-02-10T01:40:27.448Z,5.70
2019-02-10T01:41:27.436Z,5.57
2019-02-10T01:42:27.424Z,5.59
2019-02-10T01:43:27.412Z,5.48
2019-02-10T01:44:27.403Z,5.52
2019-02-10T01:45:27.394Z,5.56
2019-02-10T01:46:27.379Z,5.57
2019-02-10T01:47:27.368Z,5.49
2019-02-10T01:48:27.551Z,5.50
2019-02-10T01:49:27.345Z,5.52
2019-02-10T01:50:27.333Z,5.55
2019-02-10T01:51:27.325Z,5.46
2019-02-10T01:52:27.312Z,5.46
2019-02-10T01:53:27.303Z,5.45
2019-02-10T01:54:27.292Z,5.40
2019-02-10T01:55:27.277Z,5.32
2019-02-10T01:56:27.269Z,5.34
2019-02-10T01:57:27.269Z,5.38
2019-02-10T01:58:27.245Z,5.40
2019-02-10T01:59:27.235Z,5.35
2019-02-10T02:00:27.222Z,5.31
2019-02-10T02:01:27.216Z,5.27
2019-02-10T02:02:27.201Z,5.38
2019-02-10T02:03:27.191Z,5.35
2019-02-10T02:04:27.179Z,5.40
2019-02-10T02:05:27.167Z,5.35
2019-02-10T02:06:27.156Z,5.30
2019-02-10T02:07:27.147Z,5.27
2019-02-10T02:08:27.137Z,5.22
2019-02-10T02:09:27.123Z,5.23
2019-02-10T02:10:27.112Z,5.17
2019-02-10T02:11:27.100Z,5.17
2019-02-10T02:12:27.090Z,5.19
2019-02-10T02:13:27.081Z,5.17
2019-02-10T02:14:27.076Z,5.13
2019-02-10T02:15:27.057Z,5.23
2019-02-10T02:16:27.053Z,5.17
2019-02-10T02:17:27.037Z,5.10
2019-02-10T02:18:27.026Z,5.14
2019-02-10T02:19:27.012Z,5.23
2019-02-10T02:20:27.011Z,5.17
2019-02-10T02:21:26.989Z,5.12
2019-02-10T02:22:26.980Z,5.07
2019-02-10T02:23:26.968Z,5.12
2019-02-10T02:24:26.958Z,5.22
2019-02-10T02:25:26.950Z,5.13
2019-02-10T02:26:26.933Z,5.10
2019-02-10T02:27:26.922Z,5.01
2019-02-10T02:28:26.913Z,4.99
2019-02-10T02:29:26.909Z,5.04
2019-02-10T02:30:26.894Z,5.02
2019-02-10T02:31:26.878Z,5.07
2019-02-10T02:32:26.868Z,5.02
2019-02-10T02:33:26.861Z,5.13
2019-02-10T02:34:26.845Z,5.10
2019-02-10T02:35:26.836Z,5.01
2019-02-10T02:36:26.828Z,5.02
2019-02-10T02:37:26.812Z,5.07
2019-02-10T02:38:26.799Z,5.10
2019-02-10T02:39:26.790Z,5.07
2019-02-10T02:40:26.777Z,5.05
2019-02-10T02:41:26.767Z,5.09
2019-02-10T02:42:26.760Z,5.04
2019-02-10T02:43:26.746Z,5.04
2019-02-10T02:44:26.733Z,5.02
2019-02-10T02:45:26.723Z,5.07
2019-02-10T02:46:26.722Z,5.01
2019-02-10T02:47:26.702Z,5.05
2019-02-10T02:48:26.690Z,5.04
2019-02-10T02:49:26.688Z,5.09
2019-02-10T02:50:26.668Z,5.05
2019-02-10T02:51:26.656Z,5.07
2019-02-10T02:52:26.719Z,5.09
2019-02-10T02:53:26.639Z,5.12
2019-02-10T02:54:26.623Z,5.07
2019-02-10T02:55:26.669Z,5.10
2019-02-10T02:56:26.602Z,5.10
2019-02-10T02:57:26.590Z,5.04
2019-02-10T02:58:26.582Z,4.99
2019-02-10T02:59:26.568Z,5.01
2019-02-10T03:00:26.559Z,5.10
2019-02-10T03:01:26.565Z,5.01
2019-02-10T03:02:26.533Z,4.99
2019-02-10T03:03:26.524Z,5.07
2019-02-10T03:04:26.513Z,5.05
2019-02-10T03:05:26.516Z,5.02
2019-02-10T03:06:26.491Z,5.10
2019-02-10T03:07:26.480Z,5.04
2019-02-10T03:08:26.468Z,5.10
2019-02-10T03:09:26.462Z,4.98
2019-02-10T03:10:26.450Z,5.04
2019-02-10T03:11:26.436Z,4.98
2019-02-10T03:12:26.424Z,4.96
2019-02-10T03:13:26.415Z,4.98
2019-02-10T03:14:26.403Z,4.96
2019-02-10T03:15:26.425Z,5.02
2019-02-10T03:16:26.379Z,4.98
2019-02-10T03:17:26.370Z,4.96
2019-02-10T03:18:26.355Z,4.92
2019-02-10T03:19:26.346Z,4.91
2019-02-10T03:20:26.344Z,4.91
2019-02-10T03:21:26.326Z,4.92
2019-02-10T03:22:26.319Z,4.98
2019-02-10T03:23:26.304Z,4.96
2019-02-10T03:24:26.291Z,4.92
2019-02-10T03:25:26.285Z,4.83
2019-02-10T03:26:26.269Z,4.86
2019-02-10T03:27:26.269Z,4.91
2019-02-10T03:28:26.255Z,4.98
2019-02-10T03:29:26.235Z,5.04
2019-02-10T03:30:26.232Z,4.96
2019-02-10T03:31:26.213Z,4.95
2019-02-10T03:32:26.205Z,5.05
2019-02-10T03:33:26.209Z,5.05
2019-02-10T03:34:26.178Z,5.02
2019-02-10T03:35:26.169Z,5.05
2019-02-10T03:36:26.164Z,5.05
2019-02-10T03:37:27.471Z,4.92
2019-02-10T03:38:26.145Z,4.98
2019-02-10T03:39:26.124Z,4.96
2019-02-10T03:40:26.114Z,5.01
2019-02-10T03:41:26.102Z,4.94
2019-02-10T03:42:26.093Z,5.02
2019-02-10T03:43:26.081Z,5.02
2019-02-10T03:44:26.068Z,5.02
2019-02-10T03:45:26.056Z,4.95
2019-02-10T03:46:26.045Z,5.02
2019-02-10T03:47:26.055Z,4.86
2019-02-10T03:48:26.023Z,5.01
2019-02-10T03:49:26.012Z,4.91
2019-02-10T03:50:26.009Z,4.95
2019-02-10T03:51:25.997Z,5.01
2019-02-10T03:52:25.978Z,4.96
2019-02-10T03:53:25.969Z,4.95
2019-02-10T03:54:25.956Z,4.86
2019-02-10T03:55:25.953Z,4.96
2019-02-10T03:56:25.935Z,4.98
2019-02-10T03:57:25.923Z,4.99
2019-02-10T03:58:25.911Z,4.99
2019-02-10T03:59:25.902Z,4.99
2019-02-10T04:00:25.897Z,5.02
2019-02-10T04:01:25.940Z,4.95
2019-02-10T04:02:25.871Z,4.99
2019-02-10T04:03:25.857Z,5.02
2019-02-10T04:04:25.848Z,5.02
2019-02-10T04:05:25.833Z,4.99
2019-02-10T04:06:25.827Z,4.96
2019-02-10T04:07:25.815Z,4.96
2019-02-10T04:08:25.799Z,5.05
2019-02-10T04:09:25.799Z,4.96
2019-02-10T04:10:25.778Z,5.01
2019-02-10T04:11:25.805Z,4.92
2019-02-10T04:12:25.762Z,4.86
2019-02-10T04:13:25.748Z,4.83
2019-02-10T04:14:25.733Z,4.88
2019-02-10T04:15:25.722Z,4.91
2019-02-10T04:16:25.712Z,4.89
2019-02-10T04:17:25.701Z,4.91
2019-02-10T04:18:25.691Z,4.89
2019-02-10T04:19:25.683Z,4.86
2019-02-10T04:20:25.666Z,4.84
2019-02-10T04:21:25.655Z,4.84
2019-02-10T04:22:25.645Z,4.84
2019-02-10T04:23:25.636Z,4.80
2019-02-10T04:24:25.623Z,4.84
2019-02-10T04:25:25.612Z,4.88
2019-02-10T04:26:25.610Z,4.84
2019-02-10T04:27:25.594Z,4.84
2019-02-10T04:28:25.597Z,4.88
2019-02-10T04:29:25.572Z,4.83
2019-02-10T04:30:25.568Z,4.86
2019-02-10T04:31:25.570Z,4.84
2019-02-10T04:32:25.533Z,4.86
2019-02-10T04:33:25.524Z,4.79
2019-02-10T04:34:25.513Z,4.86
2019-02-10T04:35:25.505Z,4.80
2019-02-10T04:36:25.493Z,4.79
2019-02-10T04:37:25.479Z,4.75
2019-02-10T04:38:25.474Z,4.79
2019-02-10T04:39:25.457Z,4.79
2019-02-10T04:40:25.456Z,4.83
2019-02-10T04:41:25.437Z,4.77
2019-02-10T04:42:25.437Z,4.77
2019-02-10T04:43:25.428Z,4.77
2019-02-10T04:44:25.430Z,4.67
2019-02-10T04:45:25.399Z,4.70
2019-02-10T04:46:25.381Z,4.73
2019-02-10T04:47:25.398Z,4.67
2019-02-10T04:48:25.380Z,4.75
2019-02-10T04:49:25.385Z,4.65
2019-02-10T04:50:25.335Z,4.73
2019-02-10T04:51:25.326Z,4.67
2019-02-10T04:52:25.312Z,4.76
2019-02-10T04:53:25.311Z,4.67
2019-02-10T04:54:25.289Z,4.73
2019-02-10T04:55:25.277Z,4.72
2019-02-10T04:56:25.319Z,4.73
2019-02-10T04:57:25.256Z,4.70
2019-02-10T04:58:25.245Z,4.69
2019-02-10T04:59:25.236Z,4.65
2019-02-10T05:00:25.223Z,4.70
2019-02-10T05:01:25.211Z,4.73
2019-02-10T05:02:25.201Z,4.75
2019-02-10T05:03:25.189Z,4.75
2019-02-10T05:04:25.220Z,4.73
2019-02-10T05:05:25.167Z,4.72
2019-02-10T05:06:25.187Z,4.69
2019-02-10T05:07:25.147Z,4.70
2019-02-10T05:08:25.138Z,4.65
2019-02-10T05:09:25.122Z,4.73
2019-02-10T05:10:25.122Z,4.70
2019-02-10T05:11:25.102Z,4.69
2019-02-10T05:12:25.092Z,4.67
2019-02-10T05:13:25.087Z,4.64
2019-02-10T05:14:25.068Z,4.61
2019-02-10T05:16:52.164Z,4.64
2019-02-10T05:19:19.098Z,4.67
2019-02-10T05:20:37.222Z,4.55
2019-02-10T05:22:18.953Z,4.62
2019-02-10T05:23:18.939Z,4.62
2019-02-10T05:26:09.792Z,4.54
2019-02-10T05:28:36.733Z,4.61
2019-02-10T05:31:04.656Z,4.64
2019-02-10T05:32:25.280Z,4.50
2019-02-10T05:33:46.184Z,4.51
2019-02-10T05:35:04.303Z,4.64
2019-02-10T05:36:38.997Z,4.57
2019-02-10T05:38:04.150Z,4.55
2019-02-10T05:39:21.517Z,4.62
2019-02-10T05:40:39.636Z,4.62
2019-02-10T05:42:03.182Z,4.58
2019-02-10T05:44:31.485Z,4.59
2019-02-10T05:45:51.107Z,4.57
2019-02-10T05:47:13.013Z,4.61
2019-02-10T05:48:13.001Z,4.64
2019-02-10T05:49:55.551Z,4.61
2019-02-10T05:50:55.539Z,4.70
2019-02-10T05:52:37.072Z,4.65
2019-02-10T05:53:37.061Z,4.70
2019-02-10T05:55:18.614Z,4.67
2019-02-10T05:56:18.599Z,4.70
2019-02-10T05:58:00.138Z,4.65
2019-02-10T05:59:00.117Z,4.65
2019-02-10T06:00:41.657Z,4.83
2019-02-10T06:01:41.643Z,4.83
2019-02-10T06:03:23.206Z,4.79
2019-02-10T06:04:23.220Z,4.83
2019-02-10T06:06:04.740Z,4.84
2019-02-10T06:07:04.854Z,4.84
2019-02-10T06:08:46.278Z,4.88
2019-02-10T06:09:46.270Z,4.89
2019-02-10T06:11:16.947Z,4.86
2019-02-10T06:12:16.935Z,4.88
2019-02-10T06:13:58.987Z,5.01
2019-02-10T06:14:58.964Z,5.02
2019-02-10T06:15:58.954Z,4.91
2019-02-10T06:16:58.944Z,4.94
2019-02-10T06:17:58.931Z,4.92
2019-02-10T06:18:58.929Z,4.95
2019-02-10T06:19:58.909Z,4.99
2019-02-10T06:20:58.898Z,4.95
2019-02-10T06:21:58.887Z,5.05
2019-02-10T06:22:58.885Z,5.01
2019-02-10T06:23:58.866Z,5.04
2019-02-10T06:24:58.857Z,5.02
2019-02-10T06:25:58.843Z,5.02
2019-02-10T06:26:58.831Z,4.92
2019-02-10T06:27:58.829Z,4.96
2019-02-10T06:28:58.809Z,5.04
2019-02-10T06:29:58.801Z,5.04
2019-02-10T06:30:58.789Z,5.04
2019-02-10T06:31:58.775Z,5.10
2019-02-10T06:32:58.769Z,5.10
2019-02-10T06:33:58.753Z,5.02
2019-02-10T06:34:58.743Z,5.01
2019-02-10T06:35:58.732Z,5.05
2019-02-10T06:36:58.722Z,5.04
2019-02-10T06:37:58.711Z,5.09
2019-02-10T06:38:58.702Z,5.10
2019-02-10T06:39:58.689Z,5.09
2019-02-10T06:40:58.678Z,5.12
2019-02-10T06:41:58.668Z,5.10
2019-02-10T06:42:58.654Z,5.07
2019-02-10T06:43:58.643Z,5.16
2019-02-10T06:44:58.635Z,5.16
2019-02-10T06:45:58.623Z,5.19
2019-02-10T06:46:58.670Z,5.10
2019-02-10T06:47:58.599Z,5.19
2019-02-10T06:48:58.591Z,5.19
2019-02-10T06:49:58.576Z,5.17
2019-02-10T06:50:58.565Z,5.22
2019-02-10T06:51:58.553Z,5.23
2019-02-10T06:52:58.543Z,5.14
2019-02-10T06:53:58.538Z,5.27
2019-02-10T06:54:58.523Z,5.16
2019-02-10T06:55:58.510Z,5.13
2019-02-10T06:56:58.498Z,5.14
2019-02-10T06:57:58.491Z,5.22
2019-02-10T06:58:58.482Z,5.22
2019-02-10T06:59:58.470Z,5.23
2019-02-10T07:00:58.453Z,5.28
2019-02-10T07:01:58.444Z,5.28
2019-02-10T07:02:58.433Z,5.40
2019-02-10T07:03:58.420Z,5.41
2019-02-10T07:04:58.409Z,5.40
2019-02-10T07:05:58.399Z,5.40
2019-02-10T07:06:58.396Z,5.38
2019-02-10T07:07:58.376Z,5.43
2019-02-10T07:08:58.373Z,5.40
2019-02-10T07:09:58.357Z,5.48
2019-02-10T07:10:58.342Z,5.46
2019-02-10T07:11:58.332Z,5.41
2019-02-10T07:12:58.320Z,5.49
2019-02-10T07:13:58.309Z,5.48
2019-02-10T07:14:58.309Z,5.46
2019-02-10T07:15:58.291Z,5.45
2019-02-10T07:16:58.276Z,5.50
2019-02-10T07:17:58.267Z,5.50
2019-02-10T07:18:58.253Z,5.56
2019-02-10T07:19:58.243Z,5.50
2019-02-10T07:20:58.232Z,5.50
2019-02-10T07:21:58.220Z,5.50
2019-02-10T07:22:58.209Z,5.56
2019-02-10T07:23:58.198Z,5.55
2019-02-10T07:24:58.188Z,5.53
2019-02-10T07:25:58.176Z,5.55
2019-02-10T07:26:58.170Z,5.52
2019-02-10T07:27:58.153Z,5.57
2019-02-10T07:28:58.145Z,5.57
2019-02-10T07:29:58.131Z,5.53
2019-02-10T07:30:58.122Z,5.53
2019-02-10T07:31:58.115Z,5.59
2019-02-10T07:32:58.098Z,5.59
2019-02-10T07:33:58.607Z,5.60
2019-02-10T07:34:58.075Z,5.73
2019-02-10T07:35:58.064Z,5.71
2019-02-10T07:36:58.052Z,5.73
2019-02-10T07:37:58.048Z,5.63
2019-02-10T07:38:58.035Z,5.71
2019-02-10T07:39:58.019Z,5.66
2019-02-10T07:40:58.008Z,5.71
2019-02-10T07:41:57.997Z,5.68
2019-02-10T07:42:57.992Z,5.66
2019-02-10T07:43:57.983Z,5.67
2019-02-10T07:44:57.963Z,5.70
2019-02-10T07:45:57.955Z,5.73
2019-02-10T07:46:57.941Z,5.77
2019-02-10T07:47:57.968Z,5.73
2019-02-10T07:48:57.920Z,5.81
2019-02-10T07:49:57.940Z,5.75
2019-02-10T07:50:57.897Z,5.77
2019-02-10T07:51:57.885Z,5.81
2019-02-10T07:52:57.875Z,5.78
2019-02-10T07:53:57.863Z,5.86
2019-02-10T07:54:57.855Z,5.81
2019-02-10T07:55:57.841Z,5.83
2019-02-10T07:56:57.830Z,5.89
2019-02-10T07:57:57.818Z,5.83
2019-02-10T07:58:57.810Z,5.95
2019-02-10T07:59:57.802Z,5.93
2019-02-10T08:00:57.785Z,5.93
2019-02-10T08:01:57.774Z,5.95
2019-02-10T08:02:57.769Z,5.96
2019-02-10T08:03:57.752Z,5.92
2019-02-10T08:04:57.742Z,5.93
2019-02-10T08:05:57.730Z,5.88
2019-02-10T08:06:57.720Z,6.00
2019-02-10T08:07:57.706Z,5.96
2019-02-10T08:08:57.696Z,5.98
2019-02-10T08:09:57.685Z,6.00
2019-02-10T08:10:57.676Z,6.06
2019-02-10T08:11:57.663Z,5.96
2019-02-10T08:12:57.652Z,6.07
2019-02-10T08:13:57.643Z,6.07
2019-02-10T08:14:57.629Z,6.18
2019-02-10T08:15:57.620Z,6.14
2019-02-10T08:16:57.608Z,6.18
2019-02-10T08:17:57.596Z,6.10
2019-02-10T08:18:57.584Z,6.26
2019-02-10T08:19:57.573Z,6.11
2019-02-10T08:20:57.561Z,6.29
2019-02-10T08:21:57.551Z,6.14
2019-02-10T08:22:57.546Z,6.13
2019-02-10T08:23:57.528Z,6.22
2019-02-10T08:24:57.518Z,6.19
2019-02-10T08:25:57.506Z,6.10
2019-02-10T08:26:57.495Z,6.14
2019-02-10T08:27:57.579Z,6.18
2019-02-10T08:28:57.502Z,6.19
2019-02-10T08:29:57.461Z,6.10
2019-02-10T08:30:57.450Z,6.18
2019-02-10T08:31:57.439Z,6.21
2019-02-10T08:32:57.426Z,6.25
2019-02-10T08:33:57.418Z,6.29
2019-02-10T08:34:57.408Z,6.33
2019-02-10T08:35:57.395Z,6.33
2019-02-10T08:36:57.382Z,6.30
2019-02-10T08:37:57.372Z,6.41
2019-02-10T08:38:57.369Z,6.44
2019-02-10T08:39:57.350Z,6.36
2019-02-10T08:40:57.339Z,6.36
2019-02-10T08:41:57.326Z,6.44
2019-02-10T08:42:57.317Z,6.29
2019-02-10T08:43:57.305Z,6.33
2019-02-10T08:44:57.293Z,6.35
2019-02-10T08:45:57.283Z,6.30
2019-02-10T08:46:57.271Z,6.35
2019-02-10T08:47:57.259Z,6.30
2019-02-10T08:48:57.248Z,6.28
2019-02-10T08:49:57.238Z,6.30
2019-02-10T08:50:57.230Z,6.28
2019-02-10T08:51:57.216Z,6.22
2019-02-10T08:52:57.205Z,6.22
2019-02-10T08:53:57.192Z,6.29
2019-02-10T08:54:57.183Z,6.28
2019-02-10T08:55:57.176Z,6.22
2019-02-10T08:56:57.237Z,6.21
2019-02-10T08:57:57.147Z,6.32
2019-02-10T08:58:57.137Z,6.25
2019-02-10T08:59:57.124Z,6.26
2019-02-10T09:00:57.169Z,6.29
2019-02-10T09:01:57.105Z,6.33
2019-02-10T09:02:57.092Z,6.36
2019-02-10T09:03:57.081Z,6.28
2019-02-10T09:04:57.069Z,6.33
2019-02-10T09:05:57.086Z,6.33
2019-02-10T09:06:57.056Z,6.32
2019-02-10T09:07:57.044Z,6.30
2019-02-10T09:09:02.477Z,6.22
2019-02-10T09:09:58.018Z,6.29
2019-02-10T09:10:57.004Z,6.06
2019-02-10T09:11:56.993Z,6.06
2019-02-10T09:12:56.980Z,6.10
2019-02-10T09:13:56.969Z,6.07
2019-02-10T09:14:56.959Z,6.10
2019-02-10T09:15:56.949Z,6.01
2019-02-10T09:16:56.935Z,6.03
2019-02-10T09:17:56.924Z,6.06
2019-02-10T09:18:56.916Z,6.03
2019-02-10T09:19:56.902Z,6.04
2019-02-10T09:20:56.889Z,6.07
2019-02-10T09:21:56.880Z,6.04
2019-02-10T09:22:56.876Z,5.98
2019-02-10T09:23:56.862Z,6.04
2019-02-10T09:24:56.845Z,5.95
2019-02-10T09:25:56.835Z,5.93
2019-02-10T09:26:56.826Z,6.00
2019-02-10T09:27:56.813Z,5.93
2019-02-10T09:28:56.801Z,5.89
2019-02-10T09:29:56.790Z,6.00
2019-02-10T09:30:56.779Z,5.96
2019-02-10T09:31:56.769Z,5.85
2019-02-10T09:32:56.760Z,5.89
2019-02-10T09:33:56.750Z,5.83
2019-02-10T09:34:56.737Z,5.89
2019-02-10T09:35:56.730Z,5.83
2019-02-10T09:36:56.714Z,5.81
2019-02-10T09:37:56.701Z,5.81
2019-02-10T09:38:56.689Z,5.73
2019-02-10T09:39:56.680Z,5.75
2019-02-10T09:40:56.677Z,5.71
2019-02-10T09:41:56.657Z,5.73
2019-02-10T09:42:56.645Z,5.70
2019-02-10T09:43:56.634Z,5.71
2019-02-10T09:44:56.628Z,5.71
2019-02-10T09:45:56.614Z,5.70
2019-02-10T09:46:56.609Z,5.74
2019-02-10T09:47:56.596Z,5.66
2019-02-10T09:48:56.579Z,5.68
2019-02-10T09:49:56.615Z,5.70
2019-02-10T09:50:56.557Z,5.71
2019-02-10T09:51:56.549Z,5.73
2019-02-10T09:52:56.535Z,5.73
2019-02-10T09:53:56.522Z,5.74
2019-02-10T09:54:56.512Z,5.74
2019-02-10T09:55:56.500Z,5.74
2019-02-10T09:56:56.492Z,5.68
2019-02-10T09:57:56.481Z,5.64
2019-02-10T09:58:56.467Z,5.73
2019-02-10T09:59:56.456Z,5.70
2019-02-10T10:00:56.448Z,5.64
2019-02-10T10:01:56.437Z,5.57
2019-02-10T10:02:56.426Z,5.63
2019-02-10T10:03:56.416Z,5.70
2019-02-10T10:04:56.401Z,5.66
2019-02-10T10:05:56.390Z,5.64
2019-02-10T10:06:56.379Z,5.64
2019-02-10T10:07:56.371Z,5.70
2019-02-10T10:08:56.363Z,5.68
2019-02-10T10:09:56.351Z,5.78
2019-02-10T10:10:56.334Z,5.73
2019-02-10T10:11:56.326Z,5.67
2019-02-10T10:12:56.316Z,5.70
2019-02-10T10:13:56.301Z,5.75
2019-02-10T10:14:56.295Z,5.77
2019-02-10T10:15:56.281Z,5.70
2019-02-10T10:16:56.267Z,5.71
2019-02-10T10:17:56.257Z,5.85
2019-02-10T10:18:56.249Z,5.75
2019-02-10T10:19:56.238Z,5.74
2019-02-10T10:20:56.229Z,5.83
2019-02-10T10:21:56.212Z,5.74
2019-02-10T10:22:56.200Z,5.77
2019-02-10T10:23:56.190Z,5.77
2019-02-10T10:24:56.180Z,5.73
2019-02-10T10:25:56.167Z,5.81
2019-02-10T10:26:56.157Z,5.86
2019-02-10T10:27:56.146Z,5.83
2019-02-10T10:28:56.135Z,5.77
2019-02-10T10:29:56.123Z,5.71
2019-02-10T10:30:56.117Z,5.81
2019-02-10T10:31:56.101Z,5.77
2019-02-10T10:32:56.089Z,5.77
2019-02-10T10:33:56.079Z,5.81
2019-02-10T10:34:56.067Z,5.83
2019-02-10T10:35:56.057Z,5.89
2019-02-10T10:36:56.060Z,5.88
2019-02-10T10:37:56.034Z,5.85
2019-02-10T10:38:56.026Z,5.89
2019-02-10T10:39:56.013Z,5.88
2019-02-10T10:40:56.003Z,5.88
2019-02-10T10:41:55.990Z,5.83
2019-02-10T10:42:55.981Z,5.82
2019-02-10T10:43:55.968Z,5.82
2019-02-10T10:44:55.957Z,5.86
2019-02-10T10:45:55.945Z,5.82
2019-02-10T10:46:55.936Z,5.82
2019-02-10T10:47:55.924Z,5.95
2019-02-10T10:48:55.918Z,5.98
2019-02-10T10:49:55.949Z,5.89
2019-02-10T10:50:55.890Z,5.95
2019-02-10T10:51:55.880Z,5.89
2019-02-10T10:52:55.868Z,5.98
2019-02-10T10:53:55.860Z,5.91
2019-02-10T10:54:55.854Z,5.96
2019-02-10T10:55:55.835Z,5.95
2019-02-10T10:56:55.822Z,5.98
2019-02-10T10:57:55.811Z,6.00
2019-02-10T10:58:55.800Z,6.04
2019-02-10T10:59:55.791Z,5.93
2019-02-10T11:00:55.777Z,5.96
2019-02-10T11:01:55.766Z,5.89
2019-02-10T11:02:55.757Z,5.95
2019-02-10T11:03:55.745Z,6.00
2019-02-10T11:04:55.736Z,5.98
2019-02-10T11:05:55.726Z,6.03
2019-02-10T11:06:55.710Z,6.00
2019-02-10T11:07:55.700Z,5.98
2019-02-10T11:08:55.690Z,6.11
2019-02-10T11:09:55.679Z,6.07
2019-02-10T11:10:55.676Z,6.13
2019-02-10T11:11:55.655Z,6.13
2019-02-10T11:12:55.645Z,6.09
2019-02-10T11:13:55.634Z,6.10
2019-02-10T11:14:55.623Z,6.09
2019-02-10T11:15:57.214Z,6.11
2019-02-10T11:16:55.603Z,6.13
2019-02-10T11:17:55.589Z,6.10
2019-02-10T11:18:55.577Z,6.10
2019-02-10T11:19:55.567Z,6.09
2019-02-10T11:20:55.555Z,6.10
2019-02-10T11:21:55.544Z,6.13
2019-02-10T11:22:55.540Z,6.21
2019-02-10T11:23:55.521Z,6.28
2019-02-10T11:24:55.511Z,6.09
2019-02-10T11:25:55.499Z,6.11
2019-02-10T11:26:55.487Z,6.11
2019-02-10T11:27:55.481Z,6.25
2019-02-10T11:28:55.466Z,6.22
2019-02-10T11:29:55.455Z,6.11
2019-02-10T11:30:55.446Z,6.16
2019-02-10T11:31:55.433Z,6.09
2019-02-10T11:32:55.421Z,6.11
2019-02-10T11:33:55.415Z,6.19
2019-02-10T11:34:55.402Z,6.09
2019-02-10T11:35:55.391Z,6.13
2019-02-10T11:36:55.376Z,6.25
2019-02-10T11:37:55.365Z,6.22
2019-02-10T11:38:55.363Z,6.21
2019-02-10T11:39:55.346Z,6.14
2019-02-10T11:40:55.333Z,6.18
2019-02-10T11:41:55.323Z,6.22
2019-02-10T11:42:55.318Z,6.29
2019-02-10T11:43:55.300Z,6.19
2019-02-10T11:44:55.291Z,6.28
2019-02-10T11:45:55.277Z,6.21
2019-02-10T11:46:55.266Z,6.28
2019-02-10T11:47:55.256Z,6.22
2019-02-10T11:48:55.242Z,6.22
2019-02-10T11:49:55.235Z,6.28
2019-02-10T11:50:55.249Z,6.33
2019-02-10T11:51:55.209Z,6.22
2019-02-10T11:52:55.198Z,6.25
2019-02-10T11:53:55.196Z,6.21
2019-02-10T11:54:55.179Z,6.30
2019-02-10T11:55:55.165Z,6.33
2019-02-10T11:56:55.155Z,6.33
2019-02-10T11:57:55.147Z,6.35
2019-02-10T11:58:55.132Z,6.36
2019-02-10T11:59:55.122Z,6.43
2019-02-10T12:00:55.108Z,6.36
2019-02-10T12:01:55.099Z,6.35
2019-02-10T12:02:55.087Z,6.43
2019-02-10T12:03:55.075Z,6.43
2019-02-10T12:04:55.064Z,6.40
2019-02-10T12:05:55.054Z,6.35
2019-02-10T12:06:55.044Z,6.46
2019-02-10T12:07:55.032Z,6.46
2019-02-10T12:08:55.020Z,6.50
2019-02-10T12:09:55.011Z,6.54
2019-02-10T12:10:54.997Z,6.53
2019-02-10T12:11:54.987Z,6.48
2019-02-10T12:12:54.975Z,6.50
2019-02-10T12:13:54.966Z,6.54
2019-02-10T12:14:54.954Z,6.65
2019-02-10T12:15:54.942Z,6.77
2019-02-10T12:16:54.931Z,6.77
2019-02-10T12:17:54.919Z,6.77
2019-02-10T12:18:54.915Z,6.73
2019-02-10T12:19:54.897Z,6.77
2019-02-10T12:20:54.889Z,6.84
2019-02-10T12:21:54.876Z,6.76
2019-02-10T12:22:54.864Z,6.77
2019-02-10T12:23:54.852Z,6.76
2019-02-10T12:24:54.842Z,6.89
2019-02-10T12:25:54.832Z,6.71
2019-02-10T12:26:54.819Z,6.84
2019-02-10T12:27:54.808Z,6.79
2019-02-10T12:28:54.796Z,6.71
2019-02-10T12:29:54.789Z,6.81
2019-02-10T12:30:54.773Z,6.83
2019-02-10T12:31:54.762Z,6.81
2019-02-10T12:32:54.751Z,6.72
2019-02-10T12:33:54.739Z,6.86
2019-02-10T12:34:54.734Z,6.91
2019-02-10T12:35:58.387Z,7.02
2019-02-10T12:36:54.708Z,7.04
2019-02-10T12:40:42.595Z,6.91
2019-02-10T12:41:37.796Z,7.02
2019-02-10T12:42:37.610Z,6.98
2019-02-10T12:43:37.600Z,6.99
2019-02-10T12:44:37.586Z,6.99
2019-02-10T12:45:37.579Z,6.97
2019-02-10T12:46:37.654Z,7.01
2019-02-10T12:47:37.555Z,6.99
2019-02-10T12:48:37.547Z,7.07
2019-02-10T12:49:37.531Z,7.07
2019-02-10T12:50:37.527Z,7.08
2019-02-10T12:51:37.511Z,6.98
2019-02-10T12:52:37.503Z,6.99
2019-02-10T12:53:37.487Z,7.04
2019-02-10T12:54:37.480Z,6.99
2019-02-10T12:55:37.475Z,6.98
2019-02-10T12:56:37.455Z,7.04
2019-02-10T12:57:37.448Z,7.05
2019-02-10T12:58:37.433Z,7.01
2019-02-10T12:59:37.423Z,7.05
2019-02-10T13:00:37.962Z,7.02
2019-02-10T13:01:37.399Z,7.09
2019-02-10T13:02:37.398Z,7.16
2019-02-10T13:03:37.381Z,7.07
2019-02-10T13:04:37.368Z,7.08
2019-02-10T13:05:37.360Z,7.07
2019-02-10T13:06:37.348Z,7.08
2019-02-10T13:07:37.337Z,7.12
2019-02-10T13:08:37.322Z,7.12
2019-02-10T13:09:37.311Z,7.12
2019-02-10T13:10:37.302Z,7.16
2019-02-10T13:11:37.290Z,7.12
2019-02-10T13:12:37.278Z,7.16
2019-02-10T13:13:37.267Z,7.12
2019-02-10T13:14:37.256Z,7.07
2019-02-10T13:15:37.246Z,7.19
2019-02-10T13:16:37.233Z,7.17
2019-02-10T13:17:37.226Z,7.15
2019-02-10T13:18:37.214Z,7.27
2019-02-10T13:19:37.204Z,7.24
2019-02-10T13:20:37.198Z,7.29
2019-02-10T13:21:37.187Z,7.24
2019-02-10T13:22:37.187Z,7.24
2019-02-10T13:23:37.156Z,7.31
2019-02-10T13:24:37.146Z,7.27
2019-02-10T13:25:37.136Z,7.27
2019-02-10T13:26:37.123Z,7.32
2019-02-10T13:27:37.140Z,7.23
2019-02-10T13:28:37.154Z,7.23
2019-02-10T13:29:37.105Z,7.23
2019-02-10T13:30:37.084Z,7.22
2019-02-10T13:31:37.068Z,7.32
2019-02-10T13:32:37.058Z,7.35
2019-02-10T13:33:37.045Z,7.31
2019-02-10T13:34:37.034Z,7.34
2019-02-10T13:35:37.024Z,7.29
2019-02-10T13:36:37.034Z,7.32
2019-02-10T13:37:37.013Z,7.32
2019-02-10T13:38:36.997Z,7.23
2019-02-10T13:39:36.982Z,7.34
2019-02-10T13:40:36.972Z,7.32
2019-02-10T13:41:36.966Z,7.24